Time;durP1;ratioP1;P1;durP2;ratioP2;P2;SDS_P1;SDS_P2;PMS_P1;PMS_P2;Temp;Humidity;BMP_temperature;BMP_pressure;BME280_temperature;BME280_humidity;BME280_pressure;Samples;Min_cycle;Max_cycle;Signal;HPM_P1;HPM_P2
2021/03/29 00:00:01;;;;;;;3.50;2.85;;;6.30;94.60;;;;;;5050813;28;20201;-72
2021/03/29 00:02:28;;;;;;;5.35;2.95;;;6.20;94.90;;;;;;5050991;28;20588;-71
2021/03/29 00:04:54;;;;;;;5.95;3.65;;;6.10;94.80;;;;;;5050800;28;20232;-70
2021/03/29 00:07:22;;;;;;;4.68;3.13;;;6.10;94.80;;;;;;5051364;28;20209;-71
2021/03/29 00:09:49;;;;;;;5.88;3.33;;;6.10;94.80;;;;;;5050387;28;20263;-71
2021/03/29 00:12:16;;;;;;;6.72;3.40;;;6.10;94.80;;;;;;5051105;28;20274;-71
2021/03/29 00:14:44;;;;;;;5.53;3.10;;;6.10;95.20;;;;;;5050545;28;20201;-70
2021/03/29 00:17:14;;;;;;;3.92;3.15;;;6.00;95.20;;;;;;5051055;28;20224;-71
2021/03/29 00:19:41;;;;;;;3.85;3.17;;;6.00;95.40;;;;;;5050200;28;20231;-71
2021/03/29 00:22:08;;;;;;;6.15;3.10;;;6.00;95.40;;;;;;5050854;28;20221;-70
2021/03/29 00:24:35;;;;;;;4.60;3.00;;;5.90;95.30;;;;;;5050677;28;20696;-70
2021/03/29 00:27:02;;;;;;;7.22;3.55;;;5.90;95.50;;;;;;5050754;28;20205;-71
2021/03/29 00:29:28;;;;;;;5.60;3.80;;;5.90;95.50;;;;;;5050378;28;20208;-70
2021/03/29 00:31:56;;;;;;;3.65;3.08;;;5.90;95.50;;;;;;5050453;28;20220;-71
2021/03/29 00:34:24;;;;;;;3.33;2.45;;;6.00;95.70;;;;;;5050767;28;20568;-70
2021/03/29 00:36:52;;;;;;;4.65;2.75;;;6.00;95.40;;;;;;5050388;28;20574;-71
2021/03/29 00:39:18;;;;;;;5.78;3.30;;;6.00;95.60;;;;;;5050188;28;20231;-70
2021/03/29 00:41:46;;;;;;;6.15;3.00;;;6.00;95.80;;;;;;5050132;28;20240;-70
2021/03/29 00:44:14;;;;;;;5.30;3.20;;;6.00;95.80;;;;;;5050454;28;20228;-70
2021/03/29 00:46:41;;;;;;;5.25;2.70;;;6.00;95.80;;;;;;5050101;28;20213;-69
2021/03/29 00:49:08;;;;;;;4.70;3.00;;;6.00;95.60;;;;;;5049716;28;20707;-71
2021/03/29 00:51:39;;;;;;;6.97;2.90;;;5.90;95.80;;;;;;5050008;28;20225;-70
2021/03/29 00:54:07;;;;;;;3.45;2.63;;;5.80;96.00;;;;;;5050269;28;20201;-70
2021/03/29 00:56:35;;;;;;;6.10;3.58;;;5.80;96.00;;;;;;5050216;28;20594;-70
2021/03/29 00:59:02;;;;;;;3.67;2.70;;;5.80;95.90;;;;;;5049578;28;20209;-70
2021/03/29 01:01:32;;;;;;;4.20;2.28;;;5.80;96.00;;;;;;5050572;28;20315;-70
2021/03/29 01:04:01;;;;;;;2.88;2.17;;;5.70;95.90;;;;;;5049701;28;20220;-70
2021/03/29 01:06:29;;;;;;;6.30;3.15;;;5.70;95.90;;;;;;5050127;28;20204;-70
2021/03/29 01:09:00;;;;;;;3.78;2.20;;;5.70;96.00;;;;;;5049187;28;20547;-70
2021/03/29 01:11:29;;;;;;;6.18;2.80;;;5.70;95.90;;;;;;5049888;28;20283;-70
2021/03/29 01:13:58;;;;;;;5.75;2.80;;;5.70;95.90;;;;;;5049839;28;20201;-70
2021/03/29 01:16:28;;;;;;;3.65;2.03;;;5.60;96.00;;;;;;5050049;28;20209;-70
2021/03/29 01:18:57;;;;;;;6.15;2.55;;;5.60;96.00;;;;;;5049054;28;20220;-70
2021/03/29 01:21:36;;;;;;;3.92;2.45;;;5.60;96.00;;;;;;5049803;28;20229;-69
2021/03/29 01:24:11;;;;;;;7.00;2.40;;;5.50;96.20;;;;;;5049501;28;20252;-70
2021/03/29 01:26:42;;;;;;;2.80;2.35;;;5.40;96.10;;;;;;5049674;28;20209;-71
2021/03/29 01:29:09;;;;;;;3.35;2.30;;;5.40;96.00;;;;;;5049134;28;20209;-70
2021/03/29 01:31:37;;;;;;;3.10;2.22;;;5.40;96.30;;;;;;5049467;28;20221;-70
2021/03/29 01:34:05;;;;;;;4.05;2.47;;;5.30;96.10;;;;;;5049451;28;20197;-70
2021/03/29 01:36:33;;;;;;;3.13;2.40;;;5.30;95.90;;;;;;5049846;28;20212;-71
2021/03/29 01:39:00;;;;;;;3.55;2.15;;;5.30;96.00;;;;;;5048832;28;20668;-70
2021/03/29 01:41:27;;;;;;;3.60;2.53;;;5.20;95.90;;;;;;5049676;28;20240;-71
2021/03/29 01:43:56;;;;;;;2.85;2.35;;;5.20;95.90;;;;;;5049200;28;20216;-71
2021/03/29 01:46:22;;;;;;;3.95;2.83;;;5.10;96.30;;;;;;5049309;28;20213;-70
2021/03/29 01:48:49;;;;;;;4.10;2.50;;;5.10;96.20;;;;;;5048793;28;20201;-71
2021/03/29 01:51:17;;;;;;;4.28;2.60;;;5.10;96.20;;;;;;5049376;28;20703;-71
2021/03/29 01:53:44;;;;;;;4.65;2.83;;;5.00;96.30;;;;;;5049214;28;20193;-71
2021/03/29 01:56:11;;;;;;;3.10;2.47;;;5.00;96.60;;;;;;5049424;28;20205;-71
2021/03/29 01:58:37;;;;;;;4.28;2.55;;;5.00;96.70;;;;;;5048223;28;20212;-70
2021/03/29 02:01:07;;;;;;;3.85;2.53;;;4.90;96.70;;;;;;5048882;28;20591;-72
2021/03/29 02:03:34;;;;;;;2.55;2.03;;;4.90;96.80;;;;;;5049146;28;20593;-71
2021/03/29 02:06:01;;;;;;;3.17;2.58;;;4.90;97.00;;;;;;5049086;28;20212;-72
2021/03/29 02:08:29;;;;;;;4.63;2.35;;;4.80;96.90;;;;;;5048784;28;20201;-70
2021/03/29 02:10:56;;;;;;;6.03;2.95;;;4.80;97.00;;;;;;5048827;28;20233;-70
2021/03/29 02:13:26;;;;;;;3.25;2.60;;;4.70;97.00;;;;;;5049153;28;20249;-70
2021/03/29 02:16:03;;;;;;;3.85;3.10;;;4.70;97.10;;;;;;5048850;28;20204;-71
2021/03/29 02:18:35;;;;;;;8.43;3.10;;;4.70;97.30;;;;;;5048783;28;20205;-70
2021/03/29 02:21:05;;;;;;;5.10;3.08;;;4.60;97.40;;;;;;5048798;28;20286;-70
2021/03/29 02:23:32;;;;;;;3.88;2.40;;;4.60;97.70;;;;;;5048815;28;20254;-71
2021/03/29 02:26:01;;;;;;;5.20;2.67;;;4.60;97.50;;;;;;5048258;28;20201;-71
2021/03/29 02:28:27;;;;;;;4.70;2.90;;;4.60;97.60;;;;;;5047706;28;20205;-70
2021/03/29 02:30:54;;;;;;;4.40;2.50;;;4.60;97.40;;;;;;5048102;28;20315;-71
2021/03/29 02:33:21;;;;;;;4.30;3.05;;;4.60;97.50;;;;;;5048224;28;20672;-71
2021/03/29 02:35:49;;;;;;;4.55;2.50;;;4.60;97.50;;;;;;5048040;28;20225;-70
2021/03/29 02:38:17;;;;;;;2.72;2.25;;;4.60;97.50;;;;;;5048156;28;20697;-70
2021/03/29 02:40:45;;;;;;;4.97;3.00;;;4.60;97.50;;;;;;5047887;28;20772;-71
2021/03/29 02:43:12;;;;;;;2.60;2.40;;;4.50;97.50;;;;;;5048084;28;20209;-70
2021/03/29 02:45:43;;;;;;;4.00;2.65;;;4.50;97.60;;;;;;5047823;28;20221;-70
2021/03/29 02:48:12;;;;;;;4.70;2.55;;;4.40;97.70;;;;;;5047882;28;20594;-71
2021/03/29 02:50:42;;;;;;;3.63;2.40;;;4.40;97.70;;;;;;5047564;28;20228;-70
2021/03/29 02:53:12;;;;;;;3.88;2.53;;;4.40;97.80;;;;;;5048262;28;20631;-70
2021/03/29 02:55:38;;;;;;;2.78;2.35;;;4.40;97.80;;;;;;5047897;28;20201;-70
2021/03/29 02:58:06;;;;;;;4.70;2.90;;;4.40;98.00;;;;;;5048275;28;20204;-70
2021/03/29 03:00:34;;;;;;;2.42;2.22;;;4.30;98.10;;;;;;5047485;28;20542;-70
2021/03/29 03:03:02;;;;;;;3.45;2.33;;;4.30;98.00;;;;;;5047776;28;20201;-70
2021/03/29 03:05:30;;;;;;;3.10;2.80;;;4.30;98.20;;;;;;5047946;28;20229;-70
2021/03/29 03:07:57;;;;;;;5.43;3.17;;;4.20;98.20;;;;;;5047656;28;20213;-70
2021/03/29 03:10:26;;;;;;;4.28;3.47;;;4.20;98.40;;;;;;5047350;28;20197;-70
2021/03/29 03:12:54;;;;;;;3.30;2.78;;;4.20;98.30;;;;;;5050781;28;20213;-70
2021/03/29 03:15:22;;;;;;;5.10;2.60;;;4.10;98.40;;;;;;5051386;28;20193;-70
2021/03/29 03:17:49;;;;;;;5.22;3.20;;;4.10;98.50;;;;;;5051168;28;20738;-70
2021/03/29 03:20:17;;;;;;;3.40;3.08;;;4.10;98.60;;;;;;5050684;28;20200;-70
2021/03/29 03:22:51;;;;;;;3.25;2.90;;;4.00;98.90;;;;;;5051202;28;20209;-70
2021/03/29 03:25:22;;;;;;;5.22;2.72;;;3.90;98.90;;;;;;5051518;28;20224;-71
2021/03/29 03:27:50;;;;;;;3.38;2.90;;;4.00;98.90;;;;;;5050824;28;20205;-70
2021/03/29 03:30:18;;;;;;;4.22;3.45;;;3.90;98.90;;;;;;5050839;28;20216;-70
2021/03/29 03:32:45;;;;;;;4.40;3.40;;;3.90;98.90;;;;;;5051588;28;20204;-70
2021/03/29 03:35:12;;;;;;;3.47;2.70;;;3.80;98.90;;;;;;5051103;28;20197;-69
2021/03/29 03:37:41;;;;;;;3.45;2.53;;;3.80;99.00;;;;;;5023535;28;20194;-69
2021/03/29 03:40:10;;;;;;;4.15;2.63;;;3.80;99.10;;;;;;5011265;28;20636;-69
2021/03/29 03:42:36;;;;;;;5.20;2.72;;;3.80;99.30;;;;;;5011920;28;20223;-68
2021/03/29 03:45:05;;;;;;;4.32;3.00;;;3.80;99.30;;;;;;5011874;28;20230;-69
2021/03/29 03:47:33;;;;;;;3.25;2.70;;;3.80;99.30;;;;;;5012143;28;20210;-69
2021/03/29 03:49:59;;;;;;;4.35;2.80;;;3.80;99.30;;;;;;5011454;28;20249;-69
2021/03/29 03:52:26;;;;;;;5.10;3.00;;;3.80;99.30;;;;;;5012032;28;20604;-69
2021/03/29 03:54:52;;;;;;;4.65;2.95;;;3.80;99.40;;;;;;5011588;28;20273;-69
2021/03/29 03:57:19;;;;;;;3.75;2.65;;;3.80;99.30;;;;;;5011258;28;20214;-71
2021/03/29 03:59:46;;;;;;;3.95;2.65;;;3.80;99.30;;;;;;5010283;28;20672;-70
2021/03/29 04:02:14;;;;;;;4.63;2.72;;;3.70;99.70;;;;;;5011276;28;20222;-71
2021/03/29 04:04:40;;;;;;;3.10;2.30;;;3.60;99.90;;;;;;5016935;28;20271;-71
2021/03/29 04:07:06;;;;;;;3.33;2.83;;;3.60;99.90;;;;;;5031176;28;20217;-72
2021/03/29 04:09:39;;;;;;;3.75;2.35;;;3.50;99.90;;;;;;5030543;28;20201;-69
2021/03/29 04:12:08;;;;;;;3.00;2.70;;;3.50;99.90;;;;;;5029212;28;20209;-70
2021/03/29 04:14:34;;;;;;;3.88;2.40;;;3.50;99.90;;;;;;5021804;28;20563;-71
2021/03/29 04:17:00;;;;;;;4.65;3.28;;;3.50;99.90;;;;;;5018673;28;20466;-70
2021/03/29 04:19:27;;;;;;;3.90;3.13;;;3.50;99.90;;;;;;5025339;28;20194;-71
2021/03/29 04:21:53;;;;;;;5.13;2.80;;;3.50;99.90;;;;;;5030285;28;20226;-70
2021/03/29 04:24:19;;;;;;;4.32;2.45;;;3.40;99.90;;;;;;5019334;28;20256;-71
2021/03/29 04:26:46;;;;;;;2.63;2.40;;;3.40;99.90;;;;;;5010953;28;20225;-70
2021/03/29 04:29:13;;;;;;;4.45;2.72;;;3.50;99.90;;;;;;5010237;28;20202;-70
2021/03/29 04:31:39;;;;;;;3.60;2.28;;;3.50;99.90;;;;;;5010543;28;20222;-70
2021/03/29 04:34:06;;;;;;;3.80;2.70;;;3.50;99.90;;;;;;5010598;28;20198;-70
2021/03/29 04:36:33;;;;;;;4.95;2.95;;;3.50;99.90;;;;;;5010642;28;20198;-71
2021/03/29 04:38:59;;;;;;;2.70;2.30;;;3.50;99.90;;;;;;5009922;28;20198;-70
2021/03/29 04:41:25;;;;;;;6.15;2.80;;;3.50;99.90;;;;;;5010196;28;20288;-70
2021/03/29 04:43:51;;;;;;;7.28;2.97;;;3.60;99.90;;;;;;5010177;28;20222;-71
2021/03/29 04:46:18;;;;;;;3.03;2.60;;;3.60;99.90;;;;;;5152500;22;20224;-69
2021/03/29 04:48:44;;;;;;;3.63;2.45;;;3.60;99.90;;;;;;5089909;28;20211;-69
2021/03/29 04:51:11;;;;;;;2.67;2.47;;;3.60;99.90;;;;;;5090297;28;20323;-69
2021/03/29 04:53:38;;;;;;;4.38;2.85;;;3.70;99.90;;;;;;5090350;28;20196;-69
2021/03/29 04:56:05;;;;;;;4.90;3.00;;;3.80;99.90;;;;;;5090223;28;20199;-69
2021/03/29 04:58:31;;;;;;;3.88;2.95;;;3.90;99.90;;;;;;5089392;28;20203;-69
2021/03/29 05:00:57;;;;;;;3.20;2.50;;;3.90;99.90;;;;;;5089824;28;20770;-69
2021/03/29 05:03:24;;;;;;;3.03;2.50;;;4.00;99.90;;;;;;5089649;28;20204;-69
2021/03/29 05:05:50;;;;;;;3.53;2.90;;;4.00;99.90;;;;;;5090071;28;20219;-69
2021/03/29 05:08:17;;;;;;;4.03;3.00;;;4.00;99.90;;;;;;5089560;28;20617;-70
2021/03/29 05:10:44;;;;;;;5.10;3.35;;;4.10;99.90;;;;;;5089564;28;20718;-70
2021/03/29 05:13:10;;;;;;;6.90;2.85;;;4.10;99.90;;;;;;5089628;28;20199;-70
2021/03/29 05:15:36;;;;;;;3.97;3.30;;;4.20;99.90;;;;;;5090364;28;20692;-70
2021/03/29 05:18:03;;;;;;;3.70;3.10;;;4.20;99.90;;;;;;5090003;28;20662;-71
2021/03/29 05:20:29;;;;;;;4.13;2.85;;;4.30;99.90;;;;;;5089787;28;20235;-70
2021/03/29 05:22:55;;;;;;;3.15;2.50;;;4.30;99.90;;;;;;5090379;28;20249;-71
2021/03/29 05:25:21;;;;;;;4.90;3.35;;;4.30;99.90;;;;;;5089954;28;20226;-71
2021/03/29 05:27:48;;;;;;;5.53;2.65;;;4.30;99.90;;;;;;5090329;28;20196;-71
2021/03/29 05:30:16;;;;;;;4.60;3.20;;;4.40;99.90;;;;;;5089761;28;20449;-71
2021/03/29 05:32:42;;;;;;;5.95;2.85;;;4.40;99.90;;;;;;5090471;28;20276;-71
2021/03/29 05:35:09;;;;;;;3.50;2.90;;;4.40;99.90;;;;;;5089201;28;20195;-71
2021/03/29 05:37:35;;;;;;;5.25;3.35;;;4.50;99.90;;;;;;5090046;28;20215;-71
2021/03/29 05:40:02;;;;;;;3.40;3.05;;;4.50;99.90;;;;;;5089659;28;20199;-71
2021/03/29 05:42:30;;;;;;;5.90;3.08;;;4.60;99.90;;;;;;5090550;28;20219;-70
2021/03/29 05:45:05;;;;;;;6.70;3.30;;;4.60;99.90;;;;;;5089847;28;20226;-71
2021/03/29 05:47:31;;;;;;;7.05;3.88;;;4.70;99.90;;;;;;5089838;28;20203;-71
2021/03/29 05:49:59;;;;;;;4.90;3.00;;;4.90;99.90;;;;;;5089469;28;20199;-71
2021/03/29 05:52:27;;;;;;;4.95;3.10;;;4.90;99.90;;;;;;5089565;28;20228;-70
2021/03/29 05:54:55;;;;;;;5.47;3.40;;;5.00;99.90;;;;;;5089906;28;20200;-71
2021/03/29 05:57:21;;;;;;;5.90;3.33;;;5.10;99.90;;;;;;5089602;28;20296;-70
2021/03/29 05:59:49;;;;;;;7.28;3.75;;;5.20;99.90;;;;;;5088470;28;20298;-70
2021/03/29 06:02:28;;;;;;;4.72;3.40;;;5.20;99.90;;;;;;5088622;28;20238;-71
2021/03/29 06:04:54;;;;;;;7.07;4.10;;;5.40;99.90;;;;;;5088976;28;20222;-70
2021/03/29 06:07:22;;;;;;;8.63;3.97;;;5.50;99.90;;;;;;5088823;28;20207;-70
2021/03/29 06:09:50;;;;;;;11.13;4.20;;;5.60;99.90;;;;;;5088353;28;20204;-71
2021/03/29 06:12:19;;;;;;;5.15;3.30;;;5.70;99.90;;;;;;5088573;28;20709;-71
2021/03/29 06:14:46;;;;;;;6.00;3.35;;;5.80;99.90;;;;;;5088818;28;20629;-71
2021/03/29 06:17:14;;;;;;;3.63;3.33;;;5.90;99.90;;;;;;5089009;28;20608;-71
2021/03/29 06:19:47;;;;;;;8.00;3.95;;;6.00;99.90;;;;;;5088801;28;20298;-71
2021/03/29 06:22:19;;;;;;;6.97;3.63;;;6.20;99.90;;;;;;5089696;28;20220;-71
2021/03/29 06:25:02;;;;;;;8.27;4.32;;;6.30;99.90;;;;;;5089335;28;20227;-70
2021/03/29 06:27:30;;;;;;;9.43;4.63;;;6.50;99.90;;;;;;5089357;28;20206;-71
2021/03/29 06:30:13;;;;;;;5.03;3.80;;;6.70;99.90;;;;;;5089007;28;20207;-71
2021/03/29 06:32:51;;;;;;;4.43;3.92;;;6.90;99.90;;;;;;5077199;28;20268;-71
2021/03/29 06:35:20;;;;;;;7.25;3.50;;;7.10;99.90;;;;;;5089510;28;20192;-71
2021/03/29 06:37:47;;;;;;;6.60;3.90;;;7.40;99.90;;;;;;5089426;28;20203;-71
2021/03/29 06:40:14;;;;;;;6.15;3.83;;;7.60;99.60;;;;;;5088836;28;20689;-71
2021/03/29 06:42:41;;;;;;;7.07;3.15;;;7.90;99.10;;;;;;5089468;28;20631;-71
2021/03/29 06:45:12;;;;;;;6.18;3.33;;;8.10;99.20;;;;;;5089902;28;20223;-71
2021/03/29 06:47:38;;;;;;;5.53;3.22;;;8.20;97.80;;;;;;5093039;28;20207;-71
2021/03/29 06:50:06;;;;;;;6.25;2.97;;;8.40;98.10;;;;;;5092999;28;20233;-71
2021/03/29 06:52:34;;;;;;;7.57;3.30;;;8.60;98.10;;;;;;5092814;28;20242;-71
2021/03/29 06:55:16;;;;;;;6.03;3.25;;;8.70;98.30;;;;;;5093046;28;20689;-71
2021/03/29 06:57:43;;;;;;;6.65;3.95;;;8.80;97.60;;;;;;5093225;28;20514;-71
2021/03/29 07:00:13;;;;;;;6.03;3.80;;;8.90;97.70;;;;;;5092493;28;20564;-71
2021/03/29 07:02:41;;;;;;;7.50;3.80;;;9.00;98.00;;;;;;5092508;28;20208;-71
2021/03/29 07:05:09;;;;;;;6.82;3.70;;;9.00;97.90;;;;;;5092439;28;20223;-71
2021/03/29 07:07:37;;;;;;;6.78;3.47;;;9.10;97.50;;;;;;5092219;28;20203;-71
2021/03/29 07:10:06;;;;;;;5.40;4.05;;;9.10;97.00;;;;;;5092495;28;20196;-71
2021/03/29 07:12:36;;;;;;;10.48;4.43;;;9.30;97.50;;;;;;5070722;28;20340;-71
2021/03/29 07:15:05;;;;;;;6.93;3.65;;;9.40;97.70;;;;;;5068976;28;20193;-71
2021/03/29 07:17:34;;;;;;;4.88;3.00;;;9.60;97.20;;;;;;5068962;28;20212;-71
2021/03/29 07:20:02;;;;;;;4.90;3.50;;;9.80;96.80;;;;;;5068452;28;20239;-72
2021/03/29 07:22:29;;;;;;;6.18;3.47;;;9.90;96.50;;;;;;5068558;28;20216;-71
2021/03/29 07:25:02;;;;;;;5.75;3.42;;;10.10;96.10;;;;;;5069132;28;20246;-71
2021/03/29 07:27:30;;;;;;;7.32;3.20;;;10.40;95.90;;;;;;5068118;28;20242;-71
2021/03/29 07:29:57;;;;;;;6.47;4.10;;;10.70;95.60;;;;;;5068318;28;20204;-71
2021/03/29 07:32:32;;;;;;;6.90;3.55;;;11.00;95.20;;;;;;5068338;28;20223;-71
2021/03/29 07:34:59;;;;;;;4.07;2.90;;;11.30;95.20;;;;;;5064245;28;20284;-71
2021/03/29 07:37:28;;;;;;;4.07;2.90;;;11.50;94.00;;;;;;5068747;28;20254;-72
2021/03/29 07:39:55;;;;;;;5.05;2.53;;;11.60;91.50;;;;;;5068365;28;20204;-71
2021/03/29 07:42:39;;;;;;;6.30;2.40;;;11.70;90.10;;;;;;5068854;28;20274;-71
2021/03/29 07:45:12;;;;;;;2.67;2.33;;;11.80;90.30;;;;;;5067789;28;20228;-72
2021/03/29 07:47:50;;;;;;;5.45;2.38;;;12.00;90.40;;;;;;5068419;28;20594;-72
2021/03/29 07:50:46;;;;;;;2.90;2.30;;;12.00;87.00;;;;;;5067486;28;20196;-72
2021/03/29 07:53:18;;;;;;;5.50;2.10;;;12.20;87.00;;;;;;5068907;28;20516;-70
2021/03/29 07:55:47;;;;;;;3.30;2.50;;;12.20;83.20;;;;;;5069593;28;20451;-71
2021/03/29 07:58:15;;;;;;;4.32;2.40;;;12.30;84.50;;;;;;5067672;28;21276;-72
2021/03/29 08:00:58;;;;;;;3.17;2.30;;;12.60;85.60;;;;;;5067675;28;20662;-72
2021/03/29 08:03:53;;;;;;;4.10;2.47;;;12.90;82.60;;;;;;5068388;28;20485;-72
2021/03/29 08:06:48;;;;;;;5.57;2.23;;;13.10;86.60;;;;;;5067772;28;20454;-71
2021/03/29 08:09:20;;;;;;;6.17;2.20;;;13.40;86.00;;;;;;5067596;28;20491;-71
2021/03/29 08:12:05;;;;;;;3.33;2.10;;;13.70;87.40;;;;;;5068609;28;20486;-71
2021/03/29 08:14:41;;;;;;;4.90;2.33;;;14.10;85.20;;;;;;5067830;28;20549;-71
2021/03/29 08:17:46;;;;;;;2.73;2.10;;;14.80;83.90;;;;;;5067827;28;21173;-70
2021/03/29 08:20:22;;;;;;;3.27;2.10;;;15.20;81.90;;;;;;5067166;28;20462;-71
2021/03/29 08:23:31;;;;;;;3.20;1.90;;;15.70;80.70;;;;;;5068358;28;20973;-71
2021/03/29 08:26:09;;;;;;;4.30;2.33;;;15.80;79.80;;;;;;5068743;28;20628;-71
2021/03/29 08:29:29;;;;;;;4.80;2.30;;;15.80;81.00;;;;;;5064764;28;20473;-71
2021/03/29 08:32:16;;;;;;;4.73;2.47;;;16.00;79.50;;;;;;5064185;28;21010;-72
2021/03/29 08:34:49;;;;;;;2.87;2.07;;;16.20;80.80;;;;;;5046459;28;20444;-71
2021/03/29 08:37:17;;;;;;;4.50;1.87;;;16.50;80.40;;;;;;5046870;28;20492;-72
2021/03/29 08:39:48;;;;;;;3.93;2.27;;;17.00;79.60;;;;;;5052891;28;20508;-71
2021/03/29 08:42:20;;;;;;;5.00;2.60;;;17.60;77.70;;;;;;5047370;28;20545;-70
2021/03/29 08:44:48;;;;;;;5.70;2.43;;;18.40;75.10;;;;;;5066822;28;20482;-72
2021/03/29 08:47:17;;;;;;;3.50;2.03;;;19.40;74.50;;;;;;5049938;28;20817;-72
2021/03/29 08:49:53;;;;;;;4.53;2.47;;;20.50;72.90;;;;;;5046321;28;20464;-72
2021/03/29 08:52:20;;;;;;;3.13;2.53;;;21.50;69.70;;;;;;5055046;28;20493;-71
2021/03/29 08:54:51;;;;;;;3.10;2.47;;;22.40;67.20;;;;;;5066305;28;20516;-71
2021/03/29 08:57:21;;;;;;;5.20;2.50;;;23.30;63.80;;;;;;5057944;28;20443;-72
2021/03/29 08:59:56;;;;;;;5.33;3.20;;;23.90;62.50;;;;;;5059130;28;20455;-73
2021/03/29 09:02:28;;;;;;;3.00;2.27;;;24.30;61.80;;;;;;5051470;28;20481;-72
2021/03/29 09:04:59;;;;;;;3.93;2.80;;;24.90;62.50;;;;;;5063575;28;20886;-72
2021/03/29 09:07:31;;;;;;;3.40;2.43;;;25.30;61.10;;;;;;5048386;28;20463;-72
2021/03/29 09:10:00;;;;;;;3.20;2.40;;;25.70;59.90;;;;;;5065159;28;20848;-73
2021/03/29 09:12:30;;;;;;;4.27;2.10;;;25.70;59.10;;;;;;5053759;28;21053;-72
2021/03/29 09:14:57;;;;;;;2.60;2.00;;;25.50;59.50;;;;;;5061537;28;20459;-73
2021/03/29 09:17:31;;;;;;;4.30;2.13;;;25.40;57.00;;;;;;5059595;28;20888;-72
2021/03/29 09:19:58;;;;;;;3.37;2.00;;;25.70;56.00;;;;;;5052758;28;20509;-71
2021/03/29 09:22:37;;;;;;;3.17;1.87;;;26.00;55.00;;;;;;5059734;28;20479;-72
2021/03/29 09:25:07;;;;;;;4.63;2.07;;;26.60;54.00;;;;;;5056333;28;20490;-72
2021/03/29 09:27:42;;;;;;;3.57;2.13;;;26.90;53.20;;;;;;5057679;28;20468;-72
2021/03/29 09:30:14;;;;;;;3.43;2.20;;;27.40;52.20;;;;;;5046113;28;20495;-71
2021/03/29 09:32:45;;;;;;;4.13;2.50;;;27.50;52.90;;;;;;5052163;28;20467;-72
2021/03/29 09:35:14;;;;;;;3.30;2.20;;;27.70;52.40;;;;;;5046233;28;20475;-72
2021/03/29 09:37:49;;;;;;;3.00;2.07;;;28.00;51.30;;;;;;5052466;28;20931;-72
2021/03/29 09:40:18;;;;;;;2.50;1.83;;;28.30;50.20;;;;;;5059553;28;20464;-71
2021/03/29 09:42:49;;;;;;;4.00;2.33;;;28.40;50.00;;;;;;5055282;28;20906;-72
2021/03/29 09:45:24;;;;;;;5.13;1.90;;;28.50;50.70;;;;;;5058498;28;20484;-71
2021/03/29 09:48:08;;;;;;;2.43;1.63;;;29.10;49.70;;;;;;5061422;28;20486;-72
2021/03/29 09:50:38;;;;;;;3.10;2.07;;;29.30;48.50;;;;;;5051740;28;20486;-71
2021/03/29 09:53:17;;;;;;;2.67;1.60;;;29.20;46.90;;;;;;5054014;28;20844;-72
2021/03/29 09:55:49;;;;;;;4.00;2.30;;;29.50;45.30;;;;;;5061044;28;20500;-73
2021/03/29 09:58:20;;;;;;;3.07;1.70;;;29.30;45.40;;;;;;5056134;28;20459;-73
2021/03/29 10:00:53;;;;;;;2.40;1.80;;;28.50;47.80;;;;;;5057571;28;21941;-73
2021/03/29 10:03:22;;;;;;;4.23;1.87;;;28.80;45.80;;;;;;5054797;28;20466;-73
2021/03/29 10:05:49;;;;;;;4.43;2.37;;;28.40;46.90;;;;;;5060842;28;20494;-72
2021/03/29 10:08:30;;;;;;;4.63;2.10;;;28.90;47.20;;;;;;5054268;28;20469;-73
2021/03/29 10:11:01;;;;;;;2.97;1.90;;;29.20;47.30;;;;;;5059798;28;20489;-72
2021/03/29 10:13:39;;;;;;;3.00;2.27;;;29.60;46.60;;;;;;5064455;28;20585;-73
2021/03/29 10:16:25;;;;;;;1.93;1.73;;;30.60;44.80;;;;;;5056224;28;20971;-72
2021/03/29 10:19:06;;;;;;;3.73;2.53;;;30.80;45.70;;;;;;5060770;28;20508;-72
2021/03/29 10:21:36;;;;;;;2.80;1.70;;;31.20;45.80;;;;;;5061755;28;20514;-72
2021/03/29 10:24:13;;;;;;;3.53;2.30;;;31.60;45.20;;;;;;5058146;28;20546;-73
2021/03/29 10:26:40;;;;;;;3.00;1.90;;;31.60;43.30;;;;;;5054230;28;20464;-70
2021/03/29 10:29:08;;;;;;;4.17;2.03;;;32.00;43.00;;;;;;5049953;28;20461;-71
2021/03/29 10:31:36;;;;;;;2.33;2.00;;;32.30;41.10;;;;;;5063041;28;20508;-71
2021/03/29 10:34:04;;;;;;;4.23;2.30;;;32.40;42.90;;;;;;5069706;28;20454;-71
2021/03/29 10:36:32;;;;;;;2.67;1.80;;;32.50;41.80;;;;;;5070144;28;21111;-71
2021/03/29 10:39:05;;;;;;;2.87;1.77;;;31.60;41.90;;;;;;5075310;28;20855;-71
2021/03/29 10:41:42;;;;;;;2.33;2.13;;;31.70;42.40;;;;;;5072945;28;20484;-73
2021/03/29 10:44:09;;;;;;;3.60;2.30;;;31.90;42.90;;;;;;5059790;28;20451;-71
2021/03/29 10:46:35;;;;;;;2.40;2.10;;;31.60;40.70;;;;;;5048360;28;20951;-70
2021/03/29 10:49:02;;;;;;;3.43;2.13;;;31.30;41.90;;;;;;5047523;28;20465;-71
2021/03/29 10:51:29;;;;;;;2.20;1.87;;;31.10;42.50;;;;;;5047708;28;20589;-70
2021/03/29 10:53:55;;;;;;;4.23;2.20;;;31.00;42.40;;;;;;5047541;28;20490;-71
2021/03/29 10:56:22;;;;;;;6.70;2.40;;;31.00;42.80;;;;;;5047285;28;20866;-71
2021/03/29 10:58:48;;;;;;;2.93;2.00;;;31.50;41.50;;;;;;5047278;28;20937;-71
2021/03/29 11:01:15;;;;;;;2.83;1.93;;;32.00;41.40;;;;;;5048011;28;20501;-71
2021/03/29 11:03:43;;;;;;;2.33;2.07;;;32.40;42.50;;;;;;5047855;28;20514;-71
2021/03/29 11:06:09;;;;;;;2.90;1.87;;;32.20;41.60;;;;;;5048192;28;20484;-72
2021/03/29 11:08:37;;;;;;;4.00;2.50;;;32.30;41.40;;;;;;5053785;28;20459;-71
2021/03/29 11:11:03;;;;;;;2.40;2.03;;;33.00;40.00;;;;;;5047958;28;20512;-71
2021/03/29 11:13:30;;;;;;;3.10;2.00;;;33.00;40.10;;;;;;5047888;28;20552;-73
2021/03/29 11:15:57;;;;;;;2.30;1.80;;;32.80;39.30;;;;;;5047618;28;21447;-71
2021/03/29 11:18:24;;;;;;;3.97;2.20;;;32.60;40.50;;;;;;5046510;28;20554;-71
2021/03/29 11:20:51;;;;;;;3.60;2.30;;;32.80;40.10;;;;;;5066834;28;20476;-71
2021/03/29 11:23:25;;;;;;;2.93;1.90;;;32.90;40.80;;;;;;5067996;28;20463;-71
2021/03/29 11:25:55;;;;;;;2.53;2.10;;;33.30;40.80;;;;;;5067874;28;20454;-72
2021/03/29 11:28:22;;;;;;;10.53;9.30;;;33.50;40.50;;;;;;5049908;28;21042;-71
2021/03/29 11:30:50;;;;;;;10.33;8.63;;;33.40;40.40;;;;;;5049725;28;20477;-71
2021/03/29 11:33:20;;;;;;;7.57;6.27;;;33.50;38.50;;;;;;5066107;28;20885;-72
2021/03/29 11:35:49;;;;;;;8.10;4.73;;;33.60;39.00;;;;;;5068387;28;20509;-72
2021/03/29 11:38:16;;;;;;;8.80;7.13;;;33.20;40.80;;;;;;5051387;28;21496;-71
2021/03/29 11:40:42;;;;;;;7.40;4.20;;;33.50;39.20;;;;;;5047301;28;20562;-71
2021/03/29 11:43:10;;;;;;;3.73;2.20;;;33.60;40.80;;;;;;5048082;28;20462;-72
2021/03/29 11:45:39;;;;;;;5.27;4.37;;;33.50;40.30;;;;;;5047004;28;20457;-72
2021/03/29 11:48:07;;;;;;;4.87;3.23;;;32.80;41.60;;;;;;5059091;28;20465;-72
2021/03/29 11:50:33;;;;;;;3.70;2.33;;;32.40;40.60;;;;;;5064950;28;20493;-72
2021/03/29 11:53:00;;;;;;;2.80;2.07;;;32.10;40.80;;;;;;5067285;28;20554;-73
2021/03/29 11:55:27;;;;;;;2.93;2.20;;;32.00;38.90;;;;;;5069581;28;20637;-72
2021/03/29 11:57:54;;;;;;;2.70;1.90;;;32.20;40.10;;;;;;5070866;28;20490;-72
2021/03/29 12:00:25;;;;;;;4.50;2.40;;;32.20;39.90;;;;;;5066099;28;20461;-72
2021/03/29 12:02:58;;;;;;;3.40;2.43;;;32.30;40.40;;;;;;5070499;28;20467;-72
2021/03/29 12:05:27;;;;;;;3.33;2.80;;;32.10;39.70;;;;;;5070696;28;20888;-72
2021/03/29 12:08:07;;;;;;;4.03;2.30;;;32.00;38.20;;;;;;5070595;28;20849;-72
2021/03/29 12:13:18;;;;;;;3.17;2.27;;;31.70;41.20;;;;;;5062429;28;20469;-70
2021/03/29 12:15:48;;;;;;;4.80;2.17;;;32.00;39.40;;;;;;5070767;28;20509;-71
2021/03/29 12:18:19;;;;;;;4.13;2.00;;;31.60;38.50;;;;;;5071111;28;20459;-71
2021/03/29 12:20:45;;;;;;;4.37;2.20;;;31.40;41.10;;;;;;5070759;28;20482;-71
2021/03/29 12:23:13;;;;;;;3.87;2.20;;;31.70;40.60;;;;;;5071085;28;20961;-71
2021/03/29 12:25:41;;;;;;;2.80;1.60;;;32.20;40.30;;;;;;5070982;28;20464;-71
2021/03/29 12:28:08;;;;;;;3.10;2.60;;;32.20;41.20;;;;;;5070896;28;20999;-71
2021/03/29 12:30:37;;;;;;;3.53;2.00;;;32.80;39.80;;;;;;5070187;28;20488;-71
2021/03/29 12:33:05;;;;;;;2.50;2.30;;;32.80;39.60;;;;;;5070842;28;20460;-71
2021/03/29 12:35:32;;;;;;;3.40;2.10;;;32.60;40.40;;;;;;5070432;28;20536;-71
2021/03/29 12:37:58;;;;;;;4.67;2.10;;;32.30;40.10;;;;;;5070620;28;20467;-71
2021/03/29 12:40:26;;;;;;;2.93;2.10;;;32.00;40.60;;;;;;5070185;28;20457;-71
2021/03/29 12:43:04;;;;;;;4.50;2.03;;;31.80;41.40;;;;;;5070210;28;20461;-71
2021/03/29 12:45:33;;;;;;;5.50;2.10;;;31.70;40.90;;;;;;5070222;28;20455;-71
2021/03/29 12:48:01;;;;;;;3.23;2.30;;;32.30;42.10;;;;;;5070768;28;20509;-71
2021/03/29 12:50:31;;;;;;;7.07;2.60;;;32.50;41.40;;;;;;5069910;28;20456;-71
2021/03/29 12:52:57;;;;;;;3.90;1.97;;;32.30;41.10;;;;;;5070378;28;20522;-71
2021/03/29 12:55:25;;;;;;;3.33;2.03;;;32.20;40.40;;;;;;5070376;28;20857;-70
2021/03/29 12:57:55;;;;;;;3.60;2.20;;;31.70;41.10;;;;;;5070205;28;20475;-71
2021/03/29 13:00:23;;;;;;;2.87;2.33;;;31.60;42.20;;;;;;5069707;28;20838;-71
2021/03/29 13:02:50;;;;;;;4.27;2.37;;;31.80;42.20;;;;;;5070189;28;20878;-73
2021/03/29 13:05:21;;;;;;;2.77;2.07;;;32.00;41.70;;;;;;5070098;28;20460;-71
2021/03/29 13:07:54;;;;;;;3.57;2.40;;;31.80;41.90;;;;;;5069955;28;20462;-71